createdAt,value
2022-11-12T00:00:21.406Z,71.05
2022-11-12T00:03:08.818Z,71.15
2022-11-12T00:05:56.595Z,71.12
2022-11-12T00:08:43.643Z,70.85
2022-11-12T00:11:31.387Z,71.01
2022-11-12T00:14:18.508Z,70.86
2022-11-12T00:17:07.673Z,70.93
2022-11-12T00:19:55.075Z,70.99
2022-11-12T00:22:43.009Z,70.89
2022-11-12T00:25:30.325Z,70.96
2022-11-12T00:28:18.209Z,71.05
2022-11-12T00:31:11.970Z,71.16
2022-11-12T00:34:01.038Z,71.07
2022-11-12T00:36:48.077Z,71.01
2022-11-12T00:39:35.758Z,71.09
2022-11-12T00:42:22.702Z,71.12
2022-11-12T00:45:10.965Z,71.01
2022-11-12T00:47:58.212Z,71.03
2022-11-12T00:50:48.087Z,71.02
2022-11-12T00:53:34.934Z,71.23
2022-11-12T00:56:22.692Z,70.95
2022-11-12T00:59:09.884Z,70.93
2022-11-12T01:01:57.714Z,71.05
2022-11-12T01:04:44.686Z,71.17
2022-11-12T01:07:33.885Z,71.05
2022-11-12T01:10:21.142Z,71.07
2022-11-12T01:13:08.706Z,71.21
2022-11-12T01:15:55.657Z,71.17
2022-11-12T01:18:43.787Z,71.09
2022-11-12T01:21:33.332Z,71.00
2022-11-12T01:24:22.601Z,71.12
2022-11-12T01:27:09.626Z,71.00
2022-11-12T01:29:56.987Z,70.90
2022-11-12T01:32:44.097Z,70.88
2022-11-12T01:35:31.875Z,70.86
2022-11-12T01:38:18.895Z,70.60
2022-11-12T01:41:14.195Z,70.85
2022-11-12T01:44:12.480Z,70.75
2022-11-12T01:47:06.683Z,70.80
2022-11-12T01:49:59.460Z,70.86
2022-11-12T01:52:51.518Z,70.92
2022-11-12T01:55:39.191Z,70.91
2022-11-12T01:58:33.484Z,70.86
2022-11-12T02:01:20.466Z,70.76
2022-11-12T02:04:07.946Z,70.87
2022-11-12T02:06:57.505Z,70.93
2022-11-12T02:09:45.366Z,70.92
2022-11-12T02:12:50.170Z,70.94
2022-11-12T02:15:40.207Z,70.90
2022-11-12T02:18:27.084Z,70.96
2022-11-12T02:21:14.843Z,70.99
2022-11-12T02:24:05.625Z,70.99
2022-11-12T02:26:56.681Z,70.98
2022-11-12T02:29:46.504Z,70.91
2022-11-12T02:32:33.873Z,71.05
2022-11-12T02:35:20.890Z,71.02
2022-11-12T02:38:09.619Z,71.03
2022-11-12T02:40:58.120Z,71.15
2022-11-12T02:43:46.114Z,71.14
2022-11-12T02:46:32.722Z,71.27
2022-11-12T02:49:20.047Z,71.55
2022-11-12T02:52:07.179Z,71.65
2022-11-12T02:54:54.790Z,71.57
2022-11-12T02:57:43.338Z,71.73
2022-11-12T03:00:31.213Z,71.86
2022-11-12T03:03:18.412Z,71.92
2022-11-12T03:06:06.595Z,71.96
2022-11-12T03:08:53.555Z,71.97
2022-11-12T03:11:41.195Z,71.86
2022-11-12T03:14:29.492Z,71.88
2022-11-12T03:17:16.736Z,71.81
2022-11-12T03:20:03.571Z,71.77
2022-11-12T03:22:57.535Z,71.67
2022-11-12T03:25:44.576Z,71.68
2022-11-12T03:28:32.664Z,71.63
2022-11-12T03:31:21.137Z,71.76
2022-11-12T03:34:08.978Z,71.63
2022-11-12T03:36:56.470Z,71.48
2022-11-12T03:39:44.398Z,71.55
2022-11-12T03:42:31.370Z,71.45
2022-11-12T03:45:20.412Z,71.48
2022-11-12T03:48:08.918Z,71.31
2022-11-12T03:50:59.246Z,71.13
2022-11-12T03:53:46.632Z,71.00
2022-11-12T03:56:34.190Z,70.87
2022-11-12T03:59:21.187Z,70.97
2022-11-12T04:02:14.752Z,70.77
2022-11-12T04:05:20.475Z,70.79
2022-11-12T04:08:30.717Z,70.92
2022-11-12T04:11:19.048Z,70.69
2022-11-12T04:14:05.904Z,70.63
2022-11-12T04:17:11.227Z,70.75
2022-11-12T04:20:16.000Z,70.62
2022-11-12T04:23:05.025Z,70.69
2022-11-12T04:26:09.393Z,70.82
2022-11-12T04:29:26.381Z,70.64
2022-11-12T04:32:13.195Z,70.70
2022-11-12T04:35:01.439Z,70.55
2022-11-12T04:37:49.917Z,70.72
2022-11-12T04:40:55.793Z,70.71
2022-11-12T04:44:00.910Z,70.78
2022-11-12T04:46:47.828Z,70.87
2022-11-12T04:49:35.456Z,70.70
2022-11-12T04:52:22.597Z,70.69
2022-11-12T04:55:11.165Z,70.73
2022-11-12T04:58:00.952Z,70.73
2022-11-12T05:00:49.220Z,70.80
2022-11-12T05:03:36.564Z,70.68
2022-11-12T05:06:50.080Z,70.47
2022-11-12T05:09:37.688Z,70.60
2022-11-12T05:12:25.522Z,70.65
2022-11-12T05:15:13.888Z,70.73
2022-11-12T05:18:01.266Z,70.62
2022-11-12T05:20:51.284Z,70.81
2022-11-12T05:23:38.920Z,70.74
2022-11-12T05:26:25.786Z,70.73
2022-11-12T05:29:13.283Z,70.87
2022-11-12T05:32:01.990Z,70.63
2022-11-12T05:34:49.787Z,70.74
2022-11-12T05:37:36.913Z,70.71
2022-11-12T05:40:24.100Z,70.72
2022-11-12T05:43:11.614Z,70.85
2022-11-12T05:45:58.628Z,70.80
2022-11-12T05:48:48.568Z,70.81
2022-11-12T05:51:35.655Z,70.70
2022-11-12T05:54:25.194Z,70.87
2022-11-12T05:57:12.323Z,70.99
2022-11-12T05:59:59.921Z,70.97
2022-11-12T06:02:47.002Z,70.88
2022-11-12T06:05:37.052Z,70.57
2022-11-12T06:08:25.002Z,70.69
2022-11-12T06:11:12.630Z,70.76
2022-11-12T06:14:00.008Z,70.66
2022-11-12T06:16:47.790Z,70.70
2022-11-12T06:19:34.812Z,70.83
2022-11-12T06:22:23.811Z,70.75
2022-11-12T06:25:11.068Z,70.79
2022-11-12T06:27:59.096Z,70.91
2022-11-12T06:30:46.858Z,70.99
2022-11-12T06:33:33.476Z,71.03
2022-11-12T06:36:22.227Z,71.05
2022-11-12T06:39:11.820Z,71.00
2022-11-12T06:41:59.956Z,71.00
2022-11-12T06:44:46.916Z,70.84
2022-11-12T06:47:34.432Z,70.95
2022-11-12T06:50:21.491Z,70.93
2022-11-12T06:53:09.379Z,70.89
2022-11-12T06:56:03.210Z,70.88
2022-11-12T06:58:50.731Z,70.72
2022-11-12T07:01:38.053Z,70.86
2022-11-12T07:04:26.024Z,70.83
2022-11-12T07:07:12.822Z,70.91
2022-11-12T07:10:00.858Z,70.78
2022-11-12T07:12:53.357Z,70.96
2022-11-12T07:15:40.529Z,70.91
2022-11-12T07:18:29.294Z,70.88
2022-11-12T07:21:17.901Z,70.78
2022-11-12T07:24:05.985Z,71.11
2022-11-12T07:26:52.888Z,71.27
2022-11-12T07:29:48.169Z,71.13
2022-11-12T07:32:41.927Z,71.23
2022-11-12T07:35:31.070Z,71.14
2022-11-12T07:38:17.997Z,71.05
2022-11-12T07:41:07.868Z,70.99
2022-11-12T07:43:55.071Z,70.65
2022-11-12T07:46:44.055Z,70.66
2022-11-12T07:49:31.052Z,70.80
2022-11-12T07:52:18.414Z,70.69
2022-11-12T07:55:06.406Z,70.92
2022-11-12T07:57:54.442Z,70.97
2022-11-12T08:00:41.739Z,70.94
2022-11-12T08:03:30.244Z,70.85
2022-11-12T08:06:18.039Z,71.04
2022-11-12T08:09:07.015Z,71.10
2022-11-12T08:11:55.667Z,71.20
2022-11-12T08:14:42.727Z,71.21
2022-11-12T08:17:30.278Z,71.12
2022-11-12T08:20:18.703Z,71.03
2022-11-12T08:23:06.383Z,70.92
2022-11-12T08:25:53.581Z,70.84
2022-11-12T08:28:41.462Z,70.68
2022-11-12T08:31:28.456Z,70.68
2022-11-12T08:34:21.507Z,70.80
2022-11-12T08:37:11.261Z,70.82
2022-11-12T08:39:58.982Z,70.80
2022-11-12T08:42:46.552Z,70.94
2022-11-12T08:45:36.226Z,70.74
2022-11-12T08:48:22.976Z,70.78
2022-11-12T08:51:10.345Z,70.49
2022-11-12T08:53:58.645Z,70.53
2022-11-12T08:56:46.930Z,70.53
2022-11-12T08:59:33.962Z,70.69
2022-11-12T09:02:22.567Z,70.79
2022-11-12T09:05:09.924Z,70.82
2022-11-12T09:08:01.350Z,70.79
2022-11-12T09:10:50.765Z,70.88
2022-11-12T09:13:38.479Z,70.76
2022-11-12T09:16:25.583Z,71.02
2022-11-12T09:19:13.301Z,71.02
2022-11-12T09:22:00.435Z,70.97
2022-11-12T09:24:47.887Z,70.85
2022-11-12T09:27:36.713Z,70.92
2022-11-12T09:30:24.023Z,71.02
2022-11-12T09:33:12.023Z,70.92
2022-11-12T09:36:02.483Z,70.93
2022-11-12T09:38:49.748Z,70.94
2022-11-12T09:41:38.566Z,70.78
2022-11-12T09:44:29.003Z,70.71
2022-11-12T09:47:25.135Z,70.85
2022-11-12T09:50:21.088Z,70.92
2022-11-12T09:53:16.024Z,70.63
2022-11-12T09:56:07.376Z,70.68
2022-11-12T09:58:55.991Z,70.66
2022-11-12T10:01:56.104Z,70.59
2022-11-12T10:04:53.149Z,70.31
2022-11-12T10:07:50.442Z,70.24
2022-11-12T10:10:45.784Z,70.30
2022-11-12T10:13:44.505Z,70.17
2022-11-12T10:16:51.615Z,69.94
2022-11-12T10:20:07.360Z,69.89
2022-11-12T10:23:08.739Z,69.87
2022-11-12T10:25:59.545Z,69.64
2022-11-12T10:28:51.561Z,69.89
2022-11-12T10:31:38.906Z,69.77
2022-11-12T10:34:28.311Z,69.84
2022-11-12T10:37:20.329Z,69.77
2022-11-12T10:40:33.282Z,69.89
2022-11-12T10:43:25.154Z,69.91
2022-11-12T10:46:21.106Z,69.98
2022-11-12T10:49:24.982Z,70.15
2022-11-12T10:52:25.486Z,70.53
2022-11-12T10:55:18.600Z,70.58
2022-11-12T10:58:14.083Z,70.53
2022-11-12T11:01:04.012Z,70.66
2022-11-12T11:03:56.910Z,70.89
2022-11-12T11:06:45.721Z,70.81
2022-11-12T11:09:35.341Z,71.14
2022-11-12T11:12:28.317Z,71.40
2022-11-12T11:15:21.069Z,71.50
2022-11-12T11:18:12.284Z,71.52
2022-11-12T11:21:15.094Z,71.46
2022-11-12T11:24:16.975Z,71.66
2022-11-12T11:27:13.656Z,71.83
2022-11-12T11:30:09.350Z,71.95
2022-11-12T11:33:27.209Z,72.00
2022-11-12T11:36:26.252Z,72.08
2022-11-12T11:39:23.219Z,72.28
2022-11-12T11:42:28.230Z,72.50
2022-11-12T11:45:22.155Z,72.67
2022-11-12T11:48:21.272Z,72.60
2022-11-12T11:51:25.920Z,72.88
2022-11-12T11:54:34.000Z,72.99
2022-11-12T11:57:27.304Z,73.01
2022-11-12T12:00:18.582Z,73.15
2022-11-12T12:03:19.659Z,73.08
2022-11-12T12:06:20.996Z,73.36
2022-11-12T12:09:23.441Z,73.61
2022-11-12T12:12:26.384Z,73.48
2022-11-12T12:15:36.637Z,73.53
2022-11-12T12:18:35.880Z,73.48
2022-11-12T12:21:26.510Z,73.67
2022-11-12T12:24:19.209Z,73.65
2022-11-12T12:27:12.662Z,73.75
2022-11-12T12:30:03.832Z,73.99
2022-11-12T12:32:56.709Z,73.99
2022-11-12T12:35:52.802Z,74.00
2022-11-12T12:38:47.111Z,74.31
2022-11-12T12:41:43.690Z,74.36
2022-11-12T12:44:51.307Z,74.54
2022-11-12T12:47:44.091Z,74.68
2022-11-12T12:50:31.830Z,74.63
2022-11-12T12:53:33.794Z,74.69
2022-11-12T12:56:49.334Z,74.67
2022-11-12T12:59:36.175Z,74.37
2022-11-12T13:02:26.165Z,74.49
2022-11-12T13:05:30.232Z,74.47
2022-11-12T13:08:24.625Z,74.26
2022-11-12T13:11:11.824Z,74.03
2022-11-12T13:14:38.726Z,73.96
2022-11-12T13:17:50.621Z,73.87
2022-11-12T13:20:42.741Z,73.54
2022-11-12T13:24:00.729Z,73.33
2022-11-12T13:26:53.315Z,73.33
2022-11-12T13:29:45.505Z,73.16
2022-11-12T13:32:38.770Z,73.22
2022-11-12T13:35:31.554Z,72.95
2022-11-12T13:38:20.513Z,72.87
2022-11-12T13:41:16.824Z,72.86
2022-11-12T13:44:08.333Z,72.93
2022-11-12T13:46:56.606Z,73.11
2022-11-12T13:49:44.795Z,72.84
2022-11-12T13:52:33.043Z,73.03
2022-11-12T13:55:23.483Z,73.04
2022-11-12T13:58:20.571Z,73.27
2022-11-12T14:01:08.740Z,73.01
2022-11-12T14:03:56.938Z,72.92
2022-11-12T14:06:46.552Z,72.79
2022-11-12T14:09:47.752Z,72.68
2022-11-12T14:12:56.063Z,72.86
2022-11-12T14:16:00.746Z,72.91
2022-11-12T14:19:06.974Z,72.96
2022-11-12T14:22:02.679Z,72.92
2022-11-12T14:24:55.143Z,72.83
2022-11-12T14:27:42.374Z,72.70
2022-11-12T14:30:32.163Z,72.89
2022-11-12T14:33:22.118Z,73.05
2022-11-12T14:36:14.924Z,72.85
2022-11-12T14:39:02.934Z,72.81
2022-11-12T14:41:50.990Z,73.10
2022-11-12T14:44:40.115Z,73.06
2022-11-12T14:47:28.849Z,72.93
2022-11-12T14:50:21.952Z,72.99
2022-11-12T14:53:16.546Z,72.92
2022-11-12T14:56:10.961Z,73.10
2022-11-12T14:58:58.106Z,73.05
2022-11-12T15:02:29.663Z,73.21
2022-11-12T15:05:18.269Z,73.11
2022-11-12T15:08:11.260Z,73.24
2022-11-12T15:10:59.309Z,73.08
2022-11-12T15:13:47.598Z,73.16
2022-11-12T15:16:37.220Z,73.17
2022-11-12T15:19:26.268Z,72.96
2022-11-12T15:22:22.857Z,73.07
2022-11-12T15:25:21.136Z,73.06
2022-11-12T15:28:15.984Z,73.55
2022-11-12T15:31:07.059Z,73.40
2022-11-12T15:33:56.744Z,73.72
2022-11-12T15:36:43.884Z,73.69
2022-11-12T15:39:36.367Z,73.71
2022-11-12T15:42:29.140Z,73.77
2022-11-12T15:45:19.234Z,73.67
2022-11-12T15:48:09.090Z,74.02
2022-11-12T15:50:57.261Z,73.80
2022-11-12T15:53:44.000Z,73.92
2022-11-12T15:56:33.281Z,73.97
2022-11-12T15:59:20.491Z,74.16
2022-11-12T16:02:13.446Z,74.21
2022-11-12T16:05:01.191Z,74.18
2022-11-12T16:07:48.703Z,74.35
2022-11-12T16:10:36.941Z,74.57
2022-11-12T16:13:29.667Z,74.63
2022-11-12T16:16:17.821Z,74.40
2022-11-12T16:19:04.983Z,74.71
2022-11-12T16:21:52.072Z,74.71
2022-11-12T16:24:39.356Z,74.78
2022-11-12T16:27:27.531Z,74.71
2022-11-12T16:30:18.756Z,74.79
2022-11-12T16:33:05.795Z,74.77
2022-11-12T16:35:52.999Z,74.67
2022-11-12T16:38:41.048Z,74.81
2022-11-12T16:41:28.193Z,75.04
2022-11-12T16:44:15.926Z,74.74
2022-11-12T16:47:06.382Z,74.80
2022-11-12T16:49:54.258Z,74.98
2022-11-12T16:52:41.700Z,74.77
2022-11-12T16:55:29.943Z,74.85
2022-11-12T16:58:16.995Z,74.77
2022-11-12T17:01:04.800Z,74.78
2022-11-12T17:03:54.106Z,74.72
2022-11-12T17:06:42.710Z,74.77
2022-11-12T17:09:30.027Z,74.54
2022-11-12T17:12:17.174Z,74.60
2022-11-12T17:15:05.534Z,74.49
2022-11-12T17:17:54.499Z,74.47
2022-11-12T17:20:47.113Z,74.28
2022-11-12T17:23:38.102Z,74.34
2022-11-12T17:26:25.971Z,74.24
2022-11-12T17:29:14.310Z,74.23
2022-11-12T17:32:01.563Z,74.56
2022-11-12T17:34:49.204Z,74.46
2022-11-12T17:37:37.933Z,74.49
2022-11-12T17:40:25.029Z,74.49
2022-11-12T17:43:12.869Z,74.46
2022-11-12T17:46:00.213Z,74.66
2022-11-12T17:48:48.152Z,74.79
2022-11-12T17:51:35.221Z,74.84
2022-11-12T17:54:24.236Z,74.91
2022-11-12T17:57:11.198Z,74.74
2022-11-12T17:59:58.716Z,74.94
2022-11-12T18:02:46.583Z,75.08
2022-11-12T18:05:34.077Z,74.99
2022-11-12T18:08:21.291Z,74.98
2022-11-12T18:11:10.579Z,75.06
2022-11-12T18:13:58.958Z,75.42
2022-11-12T18:16:46.552Z,75.35
2022-11-12T18:19:34.482Z,75.35
2022-11-12T18:22:21.129Z,75.30
2022-11-12T18:25:09.752Z,75.25
2022-11-12T18:27:58.135Z,75.22
2022-11-12T18:30:46.821Z,75.11
2022-11-12T18:33:36.388Z,75.25
2022-11-12T18:36:25.526Z,75.20
2022-11-12T18:39:13.530Z,75.16
2022-11-12T18:42:00.675Z,75.29
2022-11-12T18:44:49.490Z,75.34
2022-11-12T18:47:36.649Z,75.01
2022-11-12T18:50:24.206Z,75.00
2022-11-12T18:53:11.083Z,75.01
2022-11-12T18:56:01.607Z,75.16
2022-11-12T18:58:49.241Z,75.33
2022-11-12T19:01:38.329Z,75.16
2022-11-12T19:04:25.818Z,75.16
2022-11-12T19:07:12.842Z,75.20
2022-11-12T19:10:01.610Z,74.96
2022-11-12T19:12:48.562Z,74.86
2022-11-12T19:15:36.497Z,74.95
2022-11-12T19:18:24.771Z,75.03
2022-11-12T19:21:14.796Z,75.08
2022-11-12T19:24:01.784Z,74.72
2022-11-12T19:26:49.507Z,74.89
2022-11-12T19:29:36.834Z,74.87
2022-11-12T19:32:23.774Z,74.86
2022-11-12T19:35:13.066Z,74.93
2022-11-12T19:38:00.007Z,74.70
2022-11-12T19:40:47.605Z,74.69
2022-11-12T19:43:35.115Z,74.54
2022-11-12T19:46:22.668Z,74.67
2022-11-12T19:49:11.488Z,74.50
2022-11-12T19:52:00.514Z,74.42
2022-11-12T19:54:47.520Z,74.51
2022-11-12T19:57:35.370Z,74.38
2022-11-12T20:00:22.818Z,74.48
2022-11-12T20:03:09.743Z,74.49
2022-11-12T20:06:01.325Z,74.52
2022-11-12T20:08:49.665Z,74.39
2022-11-12T20:11:37.514Z,74.23
2022-11-12T20:14:24.659Z,74.07
2022-11-12T20:17:12.082Z,74.23
2022-11-12T20:19:59.159Z,74.33
2022-11-12T20:22:46.865Z,74.08
2022-11-12T20:25:35.671Z,74.08
2022-11-12T20:28:22.503Z,74.16
2022-11-12T20:31:12.811Z,74.11
2022-11-12T20:34:00.272Z,73.79
2022-11-12T20:36:47.655Z,73.69
2022-11-12T20:39:35.934Z,73.72
2022-11-12T20:42:25.120Z,73.47
2022-11-12T20:45:12.714Z,73.17
2022-11-12T20:47:59.804Z,73.13
2022-11-12T20:51:09.371Z,72.89
2022-11-12T20:54:00.001Z,72.75
2022-11-12T20:56:50.575Z,72.40
2022-11-12T20:59:41.475Z,72.30
2022-11-12T21:02:28.219Z,72.35
2022-11-12T21:05:15.954Z,72.56
2022-11-12T21:08:02.934Z,72.43
2022-11-12T21:10:51.129Z,72.42
2022-11-12T21:13:39.328Z,72.35
2022-11-12T21:16:29.145Z,72.36
2022-11-12T21:19:15.949Z,72.25
2022-11-12T21:22:03.231Z,72.13
2022-11-12T21:24:50.219Z,72.17
2022-11-12T21:27:37.599Z,72.01
2022-11-12T21:30:24.586Z,71.97
2022-11-12T21:33:14.294Z,72.02
2022-11-12T21:36:01.353Z,72.22
2022-11-12T21:38:49.258Z,72.19
2022-11-12T21:41:35.895Z,72.12
2022-11-12T21:44:23.482Z,72.02
2022-11-12T21:47:11.036Z,71.98
2022-11-12T21:49:59.374Z,71.98
2022-11-12T21:52:46.885Z,72.09
2022-11-12T21:55:33.929Z,71.98
2022-11-12T21:58:21.282Z,71.81
2022-11-12T22:01:10.092Z,71.75
2022-11-12T22:03:59.889Z,71.59
2022-11-12T22:06:48.078Z,71.54
2022-11-12T22:09:36.217Z,71.77
2022-11-12T22:12:23.656Z,71.85
2022-11-12T22:15:11.210Z,71.74
2022-11-12T22:17:59.495Z,71.80
2022-11-12T22:20:56.894Z,71.96
2022-11-12T22:23:46.516Z,71.87
2022-11-12T22:26:33.317Z,71.96
2022-11-12T22:29:20.903Z,72.19
2022-11-12T22:32:07.912Z,72.39
2022-11-12T22:34:55.427Z,72.50
2022-11-12T22:37:42.089Z,72.63
2022-11-12T22:40:30.776Z,72.95
2022-11-12T22:43:18.043Z,73.30
2022-11-12T22:46:06.846Z,73.30
2022-11-12T22:48:54.817Z,73.10
2022-11-12T22:51:42.011Z,72.90
2022-11-12T22:54:29.531Z,72.74
2022-11-12T22:57:17.845Z,72.66
2022-11-12T23:00:09.781Z,72.85
2022-11-12T23:02:56.874Z,73.00
2022-11-12T23:05:44.414Z,72.91
2022-11-12T23:08:31.704Z,73.05
2022-11-12T23:11:20.299Z,72.83
2022-11-12T23:14:09.544Z,72.74
2022-11-12T23:16:59.463Z,72.81
2022-11-12T23:19:47.056Z,72.78
2022-11-12T23:22:34.208Z,72.54
2022-11-12T23:25:21.925Z,72.56
2022-11-12T23:28:09.116Z,72.63
2022-11-12T23:30:58.076Z,72.55
2022-11-12T23:33:46.486Z,72.62
2022-11-12T23:36:34.517Z,72.53
2022-11-12T23:39:21.704Z,72.51
2022-11-12T23:42:08.644Z,72.55
2022-11-12T23:44:56.243Z,72.41
2022-11-12T23:47:44.822Z,72.53
2022-11-12T23:50:32.229Z,72.27
2022-11-12T23:53:19.713Z,72.37
2022-11-12T23:56:09.667Z,72.29
2022-11-12T23:58:56.888Z,72.30
